Time;durP1;ratioP1;P1;durP2;ratioP2;P2;SDS_P1;SDS_P2;PMS_P1;PMS_P2;Temp;Humidity;BMP_temperature;BMP_pressure;BME280_temperature;BME280_humidity;BME280_pressure;Samples;Min_cycle;Max_cycle;Signal;HPM_P1;HPM_P2
2021/03/05 00:01:53;;;;;;;3.03;1.70;;;;;;;-0.18;72.17;101810.31;6165360;29;20245;-73
2021/03/05 00:05:17;;;;;;;2.10;1.90;;;;;;;-0.20;72.68;101816.78;6164572;28;20229;-74
2021/03/05 00:08:20;;;;;;;5.90;1.90;;;;;;;-0.14;72.13;101819.84;6165953;29;20237;-74
2021/03/05 00:11:27;;;;;;;1.60;1.60;;;;;;;-0.19;71.66;101813.13;6166227;29;20358;-74
2021/03/05 00:14:31;;;;;;;1.67;1.57;;;;;;;-0.06;70.86;101820.06;6165056;29;20444;-74
2021/03/05 00:17:34;;;;;;;3.20;1.53;;;;;;;-0.21;71.63;101821.31;6166429;29;20189;-73
2021/03/05 00:20:42;;;;;;;4.37;1.83;;;;;;;-0.02;70.32;101816.16;6165967;29;20189;-73
2021/03/05 00:23:46;;;;;;;1.57;1.53;;;;;;;-0.01;69.69;101817.00;6165475;28;20472;-73
2021/03/05 00:27:09;;;;;;;5.40;1.70;;;;;;;0.02;69.54;101815.91;6164973;28;20190;-74
2021/03/05 00:30:16;;;;;;;1.63;1.43;;;;;;;-0.04;69.98;101828.84;6166177;29;20230;-74
2021/03/05 00:33:19;;;;;;;1.83;1.50;;;;;;;-0.23;70.17;101828.63;6165680;29;20259;-74
2021/03/05 00:36:29;;;;;;;4.13;1.70;;;;;;;-0.11;70.10;101827.66;6164783;29;20196;-73
2021/03/05 00:39:33;;;;;;;1.33;1.33;;;;;;;-0.18;69.00;101831.78;6163952;29;20383;-74
2021/03/05 00:42:40;;;;;;;7.13;2.20;;;;;;;-0.08;69.15;101827.38;6164680;29;20418;-73
2021/03/05 00:45:43;;;;;;;5.20;1.70;;;;;;;-0.02;69.22;101834.06;6165549;29;20196;-73
2021/03/05 00:48:47;;;;;;;1.90;1.40;;;;;;;-0.09;68.63;101831.06;6179412;28;20518;-74
2021/03/05 00:51:52;;;;;;;1.70;1.50;;;;;;;-0.26;70.03;101826.22;6180069;28;20247;-74
2021/03/05 00:54:57;;;;;;;1.70;1.60;;;;;;;-0.13;69.50;101826.91;6179083;28;20271;-75
2021/03/05 00:58:01;;;;;;;3.23;1.63;;;;;;;-0.41;68.96;101823.91;6163550;29;20509;-74
2021/03/05 01:01:06;;;;;;;2.30;1.70;;;;;;;-0.48;69.11;101834.25;6164057;29;20272;-74
2021/03/05 01:04:29;;;;;;;1.50;1.50;;;;;;;-0.25;69.06;101830.56;6164445;29;20428;-74
2021/03/05 01:07:46;;;;;;;2.43;1.70;;;;;;;-0.18;66.98;101826.41;6164689;29;20222;-74
2021/03/05 01:10:57;;;;;;;1.97;1.67;;;;;;;-0.19;66.63;101822.03;6179638;28;20517;-74
2021/03/05 01:14:01;;;;;;;1.70;1.47;;;;;;;-0.18;66.67;101831.78;6164809;29;20222;-74
2021/03/05 01:17:06;;;;;;;1.60;1.50;;;;;;;-0.24;66.30;101826.94;6168791;28;20188;-74
2021/03/05 01:20:23;;;;;;;2.77;1.43;;;;;;;-0.35;66.59;101818.88;6170374;29;20188;-74
2021/03/05 01:23:26;;;;;;;1.77;1.40;;;;;;;-0.36;66.65;101827.88;6169935;29;20192;-74
2021/03/05 01:26:41;;;;;;;2.00;1.50;;;;;;;-0.21;67.06;101825.84;6169909;29;20189;-74
2021/03/05 01:29:45;;;;;;;1.83;1.40;;;;;;;-0.31;67.07;101814.97;6170106;29;20188;-74
2021/03/05 01:32:49;;;;;;;2.83;1.30;;;;;;;-0.42;67.49;101816.81;6169724;28;20234;-74
2021/03/05 01:35:53;;;;;;;1.70;1.60;;;;;;;-0.53;68.77;101825.72;6168670;29;20191;-73
2021/03/05 01:38:56;;;;;;;1.80;1.30;;;;;;;-0.33;67.63;101822.28;6168668;28;20547;-74
2021/03/05 01:41:59;;;;;;;1.33;1.30;;;;;;;-0.24;66.79;101826.06;6169596;29;20189;-74
2021/03/05 01:45:05;;;;;;;1.70;1.60;;;;;;;-0.71;68.83;101816.44;6169439;29;20216;-74
2021/03/05 01:48:16;;;;;;;2.00;1.40;;;;;;;-0.48;67.53;101825.34;6168294;29;20251;-74
2021/03/05 01:51:22;;;;;;;1.90;1.23;;;;;;;-0.91;68.42;101811.81;6169646;29;20256;-74
2021/03/05 01:54:26;;;;;;;2.63;1.27;;;;;;;-1.05;69.26;101822.75;6169204;28;20264;-75
2021/03/05 01:57:29;;;;;;;2.30;1.30;;;;;;;-0.71;67.68;101811.94;6169554;29;20188;-73
2021/03/05 02:00:38;;;;;;;1.30;1.30;;;;;;;-0.60;67.29;101819.13;6168100;29;20235;-73
2021/03/05 02:03:54;;;;;;;1.43;1.33;;;;;;;-0.57;67.64;101818.91;6169257;28;20200;-74
2021/03/05 02:06:59;;;;;;;3.23;1.30;;;;;;;-0.71;68.50;101821.81;6168370;29;20194;-74
2021/03/05 02:10:06;;;;;;;1.63;1.53;;;;;;;-0.83;67.60;101830.81;6167880;29;20283;-74
2021/03/05 02:13:10;;;;;;;1.53;1.20;;;;;;;-0.77;67.98;101833.03;6169116;29;20293;-74
2021/03/05 02:16:22;;;;;;;3.63;1.40;;;;;;;-0.89;68.68;101823.25;6168797;29;20257;-74
2021/03/05 02:20:03;;;;;;;1.20;1.20;;;;;;;-0.75;68.11;101831.06;6167642;29;20387;-74
2021/03/05 02:23:32;;;;;;;2.03;1.20;;;;;;;-0.63;67.68;101832.78;6165981;29;20209;-74
2021/03/05 02:27:17;;;;;;;1.27;1.17;;;;;;;-0.65;67.32;101832.06;6166730;28;20396;-74
2021/03/05 02:30:47;;;;;;;1.30;1.20;;;;;;;-0.72;67.83;101831.66;6168186;28;20495;-73
2021/03/05 02:33:56;;;;;;;1.47;1.10;;;;;;;-0.58;67.32;101822.53;6168622;28;20279;-73
2021/03/05 02:37:05;;;;;;;1.90;1.23;;;;;;;-0.64;68.27;101823.88;6168644;28;20256;-73
2021/03/05 02:40:18;;;;;;;1.30;1.00;;;;;;;-0.82;68.21;101824.47;6168168;29;20188;-73
2021/03/05 02:43:25;;;;;;;1.33;1.30;;;;;;;-0.72;68.12;101828.97;6167491;29;20193;-73
2021/03/05 02:46:43;;;;;;;1.00;1.00;;;;;;;-0.92;68.10;101834.19;6167094;29;20187;-73
2021/03/05 02:49:51;;;;;;;0.90;0.90;;;;;;;-1.04;68.35;101829.78;6168305;29;20188;-73
2021/03/05 02:52:57;;;;;;;6.13;1.20;;;;;;;-1.38;69.08;101832.38;6168206;29;20199;-73
2021/03/05 02:56:04;;;;;;;3.60;1.20;;;;;;;-0.99;68.56;101838.31;6167419;28;20237;-73
2021/03/05 02:59:13;;;;;;;1.03;0.90;;;;;;;-1.06;69.11;101846.00;6168026;29;20188;-74
2021/03/05 03:02:17;;;;;;;1.10;1.10;;;;;;;-0.80;67.64;101843.97;6166000;29;20218;-73
2021/03/05 03:05:24;;;;;;;1.90;1.00;;;;;;;-1.01;67.54;101840.28;6167891;29;20192;-73
2021/03/05 03:08:31;;;;;;;1.10;1.00;;;;;;;-0.95;67.38;101840.63;6167481;29;20252;-73
2021/03/05 03:11:35;;;;;;;2.07;1.00;;;;;;;-1.00;68.43;101852.72;6166584;29;20188;-73
2021/03/05 03:14:39;;;;;;;1.20;1.20;;;;;;;-1.20;69.33;101846.19;6167670;29;20258;-74
2021/03/05 03:17:45;;;;;;;5.00;1.23;;;;;;;-1.04;68.87;101845.88;6166629;29;20188;-73
2021/03/05 03:20:50;;;;;;;3.03;1.07;;;;;;;-0.77;68.28;101854.47;6167570;29;20212;-73
2021/03/05 03:23:54;;;;;;;1.10;1.10;;;;;;;-0.83;67.71;101855.78;6167549;28;20233;-72
2021/03/05 03:26:57;;;;;;;1.20;1.07;;;;;;;-0.85;67.46;101847.00;6165186;29;20206;-74
2021/03/05 03:30:01;;;;;;;0.80;0.80;;;;;;;-0.74;67.65;101854.19;6166655;29;20228;-74
2021/03/05 03:33:08;;;;;;;0.87;0.87;;;;;;;-0.75;67.20;101863.22;6166991;29;20237;-73
2021/03/05 03:36:14;;;;;;;0.97;0.97;;;;;;;-0.87;68.00;101874.88;6167005;28;20202;-73
2021/03/05 03:39:17;;;;;;;5.70;1.20;;;;;;;-0.83;68.13;101860.28;6166885;28;20231;-74
2021/03/05 03:42:21;;;;;;;1.33;1.23;;;;;;;-0.75;67.84;101858.72;6167276;29;20194;-74
2021/03/05 03:45:24;;;;;;;1.23;1.13;;;;;;;-0.64;68.05;101857.88;6166185;29;20223;-73
2021/03/05 03:48:28;;;;;;;1.30;1.20;;;;;;;-0.65;67.81;101875.78;6166086;28;20489;-73
2021/03/05 03:51:37;;;;;;;1.23;1.23;;;;;;;-0.64;68.26;101871.25;6166897;29;20189;-73
2021/03/05 03:54:42;;;;;;;1.33;1.20;;;;;;;-0.78;69.20;101874.19;6166006;28;20262;-74
2021/03/05 03:57:47;;;;;;;1.43;1.20;;;;;;;-0.87;69.01;101864.16;6165669;28;20258;-73
2021/03/05 04:00:53;;;;;;;2.53;1.10;;;;;;;-0.80;68.38;101876.13;6166810;28;20268;-74
2021/03/05 04:04:03;;;;;;;1.30;1.20;;;;;;;-1.07;68.79;101857.66;6165444;29;20220;-73
2021/03/05 04:07:08;;;;;;;1.43;1.20;;;;;;;-0.99;68.69;101874.00;6165928;29;20192;-73
2021/03/05 04:10:13;;;;;;;4.47;1.23;;;;;;;-1.19;69.16;101887.22;6165199;29;20214;-74
2021/03/05 04:13:17;;;;;;;2.40;1.33;;;;;;;-1.37;70.76;101882.28;6166223;29;20227;-73
2021/03/05 04:16:21;;;;;;;2.80;1.37;;;;;;;-1.46;70.56;101874.94;6165495;29;20188;-73
2021/03/05 04:19:25;;;;;;;3.10;1.20;;;;;;;-1.35;70.47;101880.34;6166339;29;20229;-74
2021/03/05 04:22:31;;;;;;;1.37;0.83;;;;;;;-1.43;70.33;101880.06;6166330;29;20222;-73
2021/03/05 04:25:34;;;;;;;1.10;1.10;;;;;;;-1.48;70.51;101879.53;6164952;29;20474;-73
2021/03/05 04:28:47;;;;;;;1.53;1.30;;;;;;;-1.38;70.63;101885.91;6165850;28;20191;-73
2021/03/05 04:31:50;;;;;;;1.77;1.10;;;;;;;-1.55;70.12;101889.00;6165816;28;20198;-72
2021/03/05 04:34:54;;;;;;;0.93;0.93;;;;;;;-1.50;70.07;101884.16;6164667;28;20219;-73
2021/03/05 04:37:57;;;;;;;3.07;1.00;;;;;;;-1.66;70.39;101883.59;6165806;28;20251;-74
2021/03/05 04:41:01;;;;;;;1.13;1.13;;;;;;;-1.58;71.06;101894.59;6165072;28;20190;-73
2021/03/05 04:44:05;;;;;;;0.93;0.93;;;;;;;-1.36;69.87;101883.97;6165584;29;20195;-74
2021/03/05 04:47:09;;;;;;;7.00;1.07;;;;;;;-1.72;70.96;101886.69;6164623;28;20385;-74
2021/03/05 04:50:13;;;;;;;1.00;1.00;;;;;;;-1.50;70.48;101897.56;6164102;29;20382;-74
2021/03/05 04:53:17;;;;;;;1.87;1.10;;;;;;;-1.54;70.21;101896.06;6165814;29;20190;-74
2021/03/05 04:56:20;;;;;;;1.97;1.10;;;;;;;-1.27;70.03;101888.66;6164589;28;20318;-74
2021/03/05 04:59:23;;;;;;;2.13;1.07;;;;;;;-1.52;70.42;101894.16;6165729;29;20230;-74
2021/03/05 05:02:27;;;;;;;2.00;1.00;;;;;;;-1.53;71.09;101900.44;6165730;28;20191;-74
2021/03/05 05:05:30;;;;;;;0.90;0.90;;;;;;;-1.69;71.25;101891.84;6164258;29;20504;-74
2021/03/05 05:08:34;;;;;;;1.10;1.10;;;;;;;-1.69;70.22;101886.47;6164362;29;20474;-73
2021/03/05 05:11:38;;;;;;;1.77;1.10;;;;;;;-1.76;70.93;101895.94;6164641;29;20191;-74
2021/03/05 05:14:41;;;;;;;1.50;1.00;;;;;;;-1.72;70.71;101905.44;6165458;28;20221;-74
2021/03/05 05:17:44;;;;;;;4.67;1.20;;;;;;;-1.86;71.24;101897.56;6165517;29;20197;-74
2021/03/05 05:20:47;;;;;;;1.00;1.00;;;;;;;-1.77;70.62;101902.25;6165680;29;20187;-74
2021/03/05 05:23:52;;;;;;;2.07;1.00;;;;;;;-1.90;71.11;101904.13;6164101;29;20191;-74
2021/03/05 05:26:55;;;;;;;1.00;1.00;;;;;;;-1.83;71.43;101900.03;6165566;29;20246;-74
2021/03/05 05:29:58;;;;;;;1.17;1.10;;;;;;;-2.07;72.73;101905.31;6164407;28;20392;-75
2021/03/05 05:33:02;;;;;;;1.50;1.13;;;;;;;-1.96;72.31;101917.94;6164035;29;20466;-74
2021/03/05 05:36:09;;;;;;;1.20;1.20;;;;;;;-1.98;72.06;101922.53;6163987;29;20517;-75
2021/03/05 05:39:13;;;;;;;6.93;1.20;;;;;;;-1.99;71.91;101920.81;6164054;29;20512;-75
2021/03/05 05:42:17;;;;;;;4.80;1.20;;;;;;;-2.18;72.32;101915.06;6165429;29;20191;-75
2021/03/05 05:45:20;;;;;;;5.87;1.17;;;;;;;-1.99;72.10;101920.81;6163910;29;20423;-73
2021/03/05 05:48:24;;;;;;;1.30;1.20;;;;;;;-1.98;72.76;101922.53;6179848;28;20379;-74
2021/03/05 05:51:30;;;;;;;3.17;0.97;;;;;;;-2.06;72.29;101933.78;6165221;28;20191;-73
2021/03/05 05:54:35;;;;;;;2.30;1.00;;;;;;;-1.94;71.41;101929.38;6164710;29;20230;-73
2021/03/05 05:57:39;;;;;;;2.37;0.93;;;;;;;-1.86;71.51;101932.34;6164575;29;20230;-72
2021/03/05 06:00:42;;;;;;;0.93;0.80;;;;;;;-1.92;71.88;101922.09;6163749;28;20259;-73
2021/03/05 06:04:01;;;;;;;4.00;1.13;;;;;;;-1.84;71.71;101941.13;6168127;29;20222;-74
2021/03/05 06:07:06;;;;;;;1.60;0.87;;;;;;;-1.75;71.59;101940.47;6168808;29;20198;-73
2021/03/05 06:10:14;;;;;;;5.07;1.30;;;;;;;-1.84;72.31;101951.81;6168872;29;20265;-73
2021/03/05 06:13:24;;;;;;;3.40;1.17;;;;;;;-2.04;72.13;101949.72;6167892;29;20440;-73
2021/03/05 06:16:27;;;;;;;4.67;1.00;;;;;;;-2.12;72.73;101962.78;6167690;29;20284;-73
2021/03/05 06:19:31;;;;;;;1.60;0.83;;;;;;;-2.18;72.85;101942.66;6169271;29;20197;-73
2021/03/05 06:22:35;;;;;;;6.23;1.30;;;;;;;-2.08;73.34;101948.25;6167598;29;20190;-73
2021/03/05 06:25:39;;;;;;;11.13;1.23;;;;;;;-2.13;73.47;101951.22;6167973;29;20481;-73
2021/03/05 06:29:00;;;;;;;4.33;1.23;;;;;;;-1.92;71.99;101959.53;6168652;29;20219;-73
2021/03/05 06:32:06;;;;;;;1.30;1.20;;;;;;;-1.86;71.72;101953.75;6167334;29;20387;-73
2021/03/05 06:35:10;;;;;;;2.53;1.10;;;;;;;-1.85;71.65;101970.66;6168106;29;20226;-73
2021/03/05 06:38:38;;;;;;;2.03;1.63;;;;;;;-1.95;72.43;101975.78;6168322;29;20190;-74
2021/03/05 06:41:42;;;;;;;1.70;0.90;;;;;;;-1.86;71.67;101985.84;6168453;29;20345;-74
2021/03/05 06:44:46;;;;;;;1.10;1.00;;;;;;;-1.97;72.34;101983.06;6168293;29;20194;-75
2021/03/05 06:48:03;;;;;;;1.23;1.07;;;;;;;-1.85;72.45;101987.56;6167012;29;20378;-74
2021/03/05 06:51:08;;;;;;;1.33;1.10;;;;;;;-1.81;71.63;102007.78;6167835;29;20191;-74
2021/03/05 06:54:13;;;;;;;2.90;1.03;;;;;;;-1.81;71.85;101997.09;6168038;28;20263;-76
2021/03/05 06:57:27;;;;;;;2.33;1.10;;;;;;;-1.71;71.67;102008.84;6166512;29;20242;-75
2021/03/05 07:00:30;;;;;;;3.87;1.20;;;;;;;-1.72;70.88;102007.09;6167817;29;20255;-75
2021/03/05 07:03:38;;;;;;;3.57;1.37;;;;;;;-1.54;71.20;102013.81;6167294;29;20346;-74
2021/03/05 07:06:41;;;;;;;7.77;1.40;;;;;;;-1.65;71.91;102011.09;6168050;29;20231;-74
2021/03/05 07:09:46;;;;;;;1.80;1.07;;;;;;;-1.65;71.54;102023.59;6166581;28;20258;-74
2021/03/05 07:13:03;;;;;;;1.80;1.13;;;;;;;-1.56;70.68;102026.47;6167184;28;20190;-74
2021/03/05 07:16:07;;;;;;;1.23;1.13;;;;;;;-1.51;71.15;102024.31;6166486;29;20511;-75
2021/03/05 07:19:13;;;;;;;3.20;1.00;;;;;;;-1.46;70.58;102023.97;6167296;29;20190;-74
2021/03/05 07:22:18;;;;;;;3.37;1.17;;;;;;;-1.44;70.40;102036.28;6167435;29;20191;-74
2021/03/05 07:25:24;;;;;;;1.60;1.17;;;;;;;-1.39;70.64;102031.44;6166284;29;20220;-74
2021/03/05 07:28:28;;;;;;;1.93;1.17;;;;;;;-1.43;70.41;102043.34;6166850;29;20198;-74
2021/03/05 07:31:34;;;;;;;6.60;1.20;;;;;;;-1.28;69.97;102052.94;6166628;29;20192;-74
2021/03/05 07:34:47;;;;;;;1.37;1.27;;;;;;;-1.30;70.69;102044.19;6165639;29;20301;-74
2021/03/05 07:37:53;;;;;;;4.03;1.60;;;;;;;-1.23;70.89;102049.09;6166769;28;20255;-75
2021/03/05 07:40:58;;;;;;;1.97;1.20;;;;;;;-1.18;70.40;102058.47;6167119;29;20259;-75
2021/03/05 07:44:02;;;;;;;7.20;1.40;;;;;;;-1.13;70.28;102064.34;6166545;28;20256;-75
2021/03/05 07:47:10;;;;;;;3.70;1.10;;;;;;;-1.04;69.79;102060.16;6166586;29;20281;-74
2021/03/05 07:50:16;;;;;;;2.77;1.20;;;;;;;-0.98;69.90;102073.09;6165431;28;20431;-74
2021/03/05 07:53:19;;;;;;;5.83;1.23;;;;;;;-0.96;69.50;102068.47;6166514;29;20191;-74
2021/03/05 07:56:39;;;;;;;0.90;0.90;;;;;;;-1.14;70.18;102064.47;6165246;29;20307;-73
2021/03/05 07:59:47;;;;;;;2.20;1.17;;;;;;;-0.89;69.42;102069.72;6165076;28;20409;-73
2021/03/05 08:02:53;;;;;;;4.60;1.20;;;;;;;-0.99;69.25;102084.78;6166366;29;20253;-73
2021/03/05 08:05:59;;;;;;;4.53;1.20;;;;;;;-0.94;69.03;102087.97;6166384;29;20197;-74
2021/03/05 08:09:07;;;;;;;5.73;1.20;;;;;;;-1.00;69.16;102088.44;6164972;29;20470;-74
2021/03/05 08:12:34;;;;;;;7.73;1.23;;;;;;;-0.88;69.59;102088.41;6165952;29;20235;-73
2021/03/05 08:15:38;;;;;;;2.80;1.30;;;;;;;-0.84;69.11;102089.00;6165829;29;20219;-73
2021/03/05 08:18:41;;;;;;;2.93;1.20;;;;;;;-0.80;69.26;102085.16;6165983;29;20191;-74
2021/03/05 08:22:01;;;;;;;8.17;1.50;;;;;;;-0.72;68.60;102093.47;6166087;29;20255;-75
2021/03/05 08:25:21;;;;;;;3.60;1.10;;;;;;;-0.67;68.77;102094.00;6165159;28;20266;-78
2021/03/05 08:28:40;;;;;;;6.33;1.27;;;;;;;-0.59;68.47;102090.72;6164907;29;20331;-75
2021/03/05 08:31:44;;;;;;;1.23;1.10;;;;;;;-0.54;67.67;102097.47;6164692;29;20474;-74
2021/03/05 08:34:48;;;;;;;4.00;1.30;;;;;;;-0.49;67.27;102087.25;6165758;29;20191;-73
2021/03/05 08:38:04;;;;;;;4.13;1.30;;;;;;;-0.57;67.97;102092.31;6164680;28;20458;-74
2021/03/05 08:41:24;;;;;;;3.33;1.10;;;;;;;-0.59;67.05;102088.88;6164437;29;20380;-74
2021/03/05 08:44:27;;;;;;;1.17;1.10;;;;;;;-0.52;67.79;102105.38;6165983;29;20194;-74
2021/03/05 08:47:32;;;;;;;5.13;1.30;;;;;;;-0.38;66.59;102103.38;6164677;29;20193;-74
2021/03/05 08:50:37;;;;;;;1.03;1.00;;;;;;;-0.24;65.98;102103.19;6165403;29;20189;-74
2021/03/05 08:53:43;;;;;;;6.87;1.00;;;;;;;-0.32;65.89;102119.00;6164021;28;20389;-74
2021/03/05 08:56:54;;;;;;;1.87;1.30;;;;;;;-0.23;65.63;102120.97;6164263;29;20306;-73
2021/03/05 08:59:58;;;;;;;3.00;1.30;;;;;;;-0.20;65.08;102123.41;6164521;29;20196;-74
2021/03/05 09:03:16;;;;;;;4.87;1.50;;;;;;;-0.32;64.71;102142.28;6164816;29;20189;-74
2021/03/05 09:06:24;;;;;;;6.23;1.40;;;;;;;-0.37;64.06;102137.25;6164757;29;20225;-74
2021/03/05 09:09:30;;;;;;;3.63;1.37;;;;;;;-0.27;64.50;102132.91;6165208;29;20196;-75
2021/03/05 09:12:54;;;;;;;4.63;2.63;;;;;;;-0.13;63.83;102135.41;6164371;29;20546;-72
2021/03/05 09:16:00;;;;;;;3.73;2.60;;;;;;;-0.10;63.08;102145.91;6165803;29;20229;-73
2021/03/05 09:19:06;;;;;;;7.37;1.53;;;;;;;-0.05;62.99;102154.44;6165168;29;20228;-75
2021/03/05 09:22:13;;;;;;;8.93;1.80;;;;;;;-0.15;63.25;102145.38;6165133;28;20225;-73
2021/03/05 09:25:19;;;;;;;6.20;2.00;;;;;;;-0.15;63.16;102153.44;6165600;29;20250;-73
2021/03/05 09:28:36;;;;;;;5.10;1.70;;;;;;;-0.15;63.45;102147.22;6165418;29;20252;-73
2021/03/05 09:31:39;;;;;;;7.83;1.30;;;;;;;-0.06;62.45;102152.75;6165017;29;20189;-73
2021/03/05 09:34:56;;;;;;;3.43;1.20;;;;;;;0.06;62.68;102164.38;6164761;29;20189;-73
2021/03/05 09:37:59;;;;;;;3.70;1.40;;;;;;;0.07;62.20;102167.91;6167790;28;20496;-74
2021/03/05 09:41:16;;;;;;;1.37;1.27;;;;;;;0.10;62.00;102162.31;6168361;29;20466;-74
2021/03/05 09:44:19;;;;;;;2.37;1.67;;;;;;;0.25;62.18;102155.75;6168164;29;20548;-74
2021/03/05 09:47:23;;;;;;;2.83;1.10;;;;;;;0.21;61.86;102154.28;6168381;29;20544;-73
2021/03/05 09:50:29;;;;;;;5.80;1.40;;;;;;;0.27;62.00;102160.03;6168150;29;20490;-76
2021/03/05 09:53:38;;;;;;;6.13;1.43;;;;;;;0.32;61.46;102175.78;6169141;29;20197;-74
2021/03/05 09:56:46;;;;;;;5.40;1.20;;;;;;;0.37;61.60;102170.91;6168441;29;20294;-74
2021/03/05 09:59:52;;;;;;;6.80;1.20;;;;;;;0.19;60.76;102165.13;6168237;29;20193;-75
2021/03/05 10:03:06;;;;;;;1.67;1.20;;;;;;;0.20;60.55;102174.06;6167928;29;20496;-74
2021/03/05 10:06:17;;;;;;;5.40;1.10;;;;;;;0.25;60.52;102166.50;6168827;29;20260;-74
2021/03/05 10:09:26;;;;;;;5.73;1.30;;;;;;;0.46;60.37;102175.59;6169108;29;20190;-75
2021/03/05 10:12:32;;;;;;;1.63;1.50;;;;;;;0.55;60.44;102185.59;6167799;29;20478;-74
2021/03/05 10:15:48;;;;;;;4.07;1.30;;;;;;;0.45;59.28;102185.47;6168818;29;20272;-74
2021/03/05 10:19:03;;;;;;;3.87;1.43;;;;;;;0.52;58.95;102186.69;6168480;29;20257;-74
2021/03/05 10:22:11;;;;;;;2.93;1.30;;;;;;;0.67;59.28;102190.00;6167537;29;20191;-73
2021/03/05 10:25:15;;;;;;;8.37;2.07;;;;;;;0.60;58.93;102188.78;6167535;29;20419;-73
2021/03/05 10:28:25;;;;;;;1.90;1.80;;;;;;;0.57;59.05;102189.00;6167483;29;20229;-74
2021/03/05 10:31:44;;;;;;;1.33;1.27;;;;;;;0.64;58.01;102196.47;6168491;29;20258;-74
2021/03/05 10:34:49;;;;;;;2.60;1.00;;;;;;;0.66;57.41;102199.03;6168437;29;20189;-74
2021/03/05 10:37:53;;;;;;;6.87;1.30;;;;;;;0.64;57.44;102201.00;6166628;29;20445;-75
2021/03/05 10:40:57;;;;;;;2.93;1.10;;;;;;;0.77;57.29;102215.16;6168234;29;20193;-75
2021/03/05 10:44:18;;;;;;;5.00;1.30;;;;;;;0.69;56.40;102212.25;6167265;29;20386;-74
2021/03/05 10:47:23;;;;;;;1.50;0.90;;;;;;;0.90;55.88;102234.72;6167240;28;20194;-75
2021/03/05 10:50:31;;;;;;;2.77;1.40;;;;;;;0.83;56.06;102222.75;6166763;29;20190;-75
2021/03/05 10:53:41;;;;;;;1.20;1.20;;;;;;;0.94;55.42;102214.69;6166905;28;20525;-75
2021/03/05 10:56:44;;;;;;;3.53;1.33;;;;;;;1.00;55.93;102224.94;6168444;29;20281;-76
2021/03/05 10:59:50;;;;;;;4.70;1.33;;;;;;;1.10;54.50;102214.34;6166875;29;20516;-76
2021/03/05 11:03:00;;;;;;;5.50;1.00;;;;;;;0.94;54.57;102220.06;6168130;28;20191;-75
2021/03/05 11:06:23;;;;;;;11.03;1.70;;;;;;;0.99;53.58;102207.13;6166524;29;20209;-74
2021/03/05 11:09:36;;;;;;;1.77;1.43;;;;;;;1.13;53.77;102209.56;6167986;29;20191;-75
2021/03/05 11:12:45;;;;;;;7.60;1.60;;;;;;;1.11;54.03;102198.06;6167557;29;20195;-75
2021/03/05 11:15:55;;;;;;;6.60;1.50;;;;;;;1.28;53.39;102218.25;6167584;29;20230;-75
2021/03/05 11:19:07;;;;;;;8.47;1.50;;;;;;;1.25;52.67;102230.09;6167302;29;20230;-74
2021/03/05 11:22:17;;;;;;;1.20;1.20;;;;;;;1.28;52.45;102229.81;6166469;29;20519;-74
2021/03/05 11:25:31;;;;;;;4.73;1.70;;;;;;;1.20;52.32;102231.44;6166638;29;20253;-74
2021/03/05 11:28:43;;;;;;;8.43;1.60;;;;;;;1.40;52.07;102237.91;6166719;28;20191;-75
2021/03/05 11:31:52;;;;;;;2.60;1.80;;;;;;;1.35;52.45;102229.34;6166890;29;20202;-74
2021/03/05 11:35:04;;;;;;;1.53;1.43;;;;;;;1.39;51.80;102236.19;6165749;29;20454;-74
2021/03/05 11:38:16;;;;;;;6.50;1.40;;;;;;;1.39;51.06;102241.59;6166627;29;20216;-74
2021/03/05 11:41:26;;;;;;;5.43;1.27;;;;;;;1.36;49.51;102237.31;6166388;29;20212;-74
2021/03/05 11:44:49;;;;;;;2.83;1.20;;;;;;;1.58;49.51;102257.91;6167035;29;20190;-75
2021/03/05 11:47:57;;;;;;;0.90;0.90;;;;;;;1.48;46.89;102240.81;6165546;29;20483;-74
2021/03/05 11:51:07;;;;;;;6.90;1.33;;;;;;;1.53;48.27;102227.84;6165444;29;20384;-75
2021/03/05 11:54:19;;;;;;;10.23;1.60;;;;;;;1.49;46.32;102242.53;6166287;29;20212;-75
2021/03/05 11:57:29;;;;;;;12.90;1.50;;;;;;;1.43;46.36;102243.03;6117855;29;20226;-75
2021/03/05 12:00:41;;;;;;;6.03;1.40;;;;;;;1.31;46.36;102250.22;6117040;29;20192;-75
2021/03/05 12:04:05;;;;;;;1.00;1.00;;;;;;;1.35;45.92;102261.63;6118706;29;20207;-75
2021/03/05 12:07:27;;;;;;;1.90;1.27;;;;;;;1.26;45.73;102247.91;6118904;29;20244;-74
2021/03/05 12:10:39;;;;;;;3.80;1.03;;;;;;;1.26;46.47;102253.28;6118966;29;20192;-73
2021/03/05 12:13:55;;;;;;;3.33;1.70;;;;;;;1.33;46.85;102252.81;6118684;29;20240;-73
2021/03/05 12:17:05;;;;;;;8.77;1.43;;;;;;;1.44;45.58;102256.34;6117251;29;20220;-75
2021/03/05 12:20:20;;;;;;;1.27;1.17;;;;;;;1.45;45.80;102267.97;6117416;29;20482;-74
2021/03/05 12:23:27;;;;;;;1.07;1.07;;;;;;;1.34;45.48;102271.50;6118832;29;20196;-74
2021/03/05 12:26:39;;;;;;;2.20;1.00;;;;;;;1.11;46.43;102273.34;6118603;29;20227;-74
2021/03/05 12:29:51;;;;;;;8.23;1.10;;;;;;;1.35;46.24;102262.47;6118865;29;20190;-74
2021/03/05 12:33:04;;;;;;;2.13;1.20;;;;;;;1.49;45.74;102264.06;6118125;29;20216;-75
2021/03/05 12:36:25;;;;;;;7.13;1.27;;;;;;;1.71;45.15;102264.00;6118460;29;20256;-75
2021/03/05 12:39:47;;;;;;;3.37;1.10;;;;;;;1.77;44.68;102260.84;6118151;29;20191;-75
2021/03/05 12:43:03;;;;;;;4.03;1.00;;;;;;;1.85;43.79;102271.78;6118038;29;20199;-73
2021/03/05 12:46:27;;;;;;;0.93;0.93;;;;;;;1.80;45.34;102279.41;6118424;29;20197;-73
2021/03/05 12:49:41;;;;;;;0.97;0.97;;;;;;;1.52;53.55;102290.69;6116860;29;20193;-74
2021/03/05 12:52:53;;;;;;;1.60;1.00;;;;;;;1.44;55.71;102298.53;6116808;29;20214;-74
2021/03/05 12:56:09;;;;;;;4.37;1.07;;;;;;;1.24;58.21;102295.59;6143571;29;20238;-73
2021/03/05 12:59:22;;;;;;;1.30;1.20;;;;;;;1.11;59.26;102292.16;6165297;28;20190;-74
2021/03/05 13:02:38;;;;;;;0.83;0.83;;;;;;;1.00;60.08;102300.19;6164618;29;20224;-74
2021/03/05 13:06:01;;;;;;;0.83;0.83;;;;;;;0.81;60.28;102297.25;6164238;29;20243;-74
2021/03/05 13:09:21;;;;;;;2.70;1.00;;;;;;;0.73;60.60;102301.50;6164055;29;20465;-73
2021/03/05 13:12:36;;;;;;;1.27;0.80;;;;;;;0.74;59.89;102298.72;6168895;28;20202;-73
2021/03/05 13:16:02;;;;;;;1.47;0.90;;;;;;;0.89;59.03;102312.78;6170612;29;20230;-75
2021/03/05 13:19:24;;;;;;;1.93;0.80;;;;;;;0.98;58.82;102304.84;6169217;28;20370;-74
2021/03/05 13:22:43;;;;;;;1.00;1.00;;;;;;;1.16;58.35;102299.84;6169829;29;20226;-74
2021/03/05 13:26:05;;;;;;;3.43;1.23;;;;;;;1.20;57.76;102317.47;6170224;29;20262;-74
2021/03/05 13:29:23;;;;;;;0.87;0.87;;;;;;;1.21;53.28;102335.31;6169748;29;20197;-75
2021/03/05 13:32:39;;;;;;;5.40;1.00;;;;;;;1.19;44.97;102332.75;6168648;29;20188;-75
2021/03/05 13:35:59;;;;;;;4.80;1.50;;;;;;;1.39;44.51;102327.63;6170504;29;20256;-75
2021/03/05 13:39:17;;;;;;;3.47;1.10;;;;;;;1.58;43.08;102327.88;6168650;29;20195;-75
2021/03/05 13:42:41;;;;;;;2.33;1.13;;;;;;;1.55;41.75;102322.72;6168535;29;20202;-74
2021/03/05 13:46:05;;;;;;;0.90;0.90;;;;;;;1.61;40.46;102333.88;6169357;29;20195;-74
2021/03/05 13:49:23;;;;;;;5.77;0.80;;;;;;;1.46;37.82;102345.00;6168815;28;20479;-74
2021/03/05 13:52:44;;;;;;;3.03;0.80;;;;;;;1.64;38.06;102343.53;6169551;28;20202;-74
2021/03/05 13:56:03;;;;;;;0.93;0.90;;;;;;;1.62;39.11;102334.69;6168969;29;20237;-74
2021/03/05 13:59:21;;;;;;;2.03;1.10;;;;;;;1.78;39.70;102340.56;6169430;29;20197;-75
2021/03/05 14:02:39;;;;;;;0.77;0.77;;;;;;;1.80;39.37;102349.38;6169360;29;20196;-74
2021/03/05 14:06:02;;;;;;;4.10;0.93;;;;;;;1.87;39.06;102346.06;6168231;29;20377;-74
2021/03/05 14:09:21;;;;;;;1.13;1.07;;;;;;;1.97;38.76;102340.81;6168849;29;20258;-72
2021/03/05 14:12:43;;;;;;;7.67;1.40;;;;;;;1.87;39.02;102334.47;6180274;28;20478;-75
2021/03/05 14:16:02;;;;;;;1.97;1.00;;;;;;;1.83;38.93;102330.28;6167842;29;20505;-75
2021/03/05 14:19:24;;;;;;;2.67;1.10;;;;;;;1.69;39.46;102347.56;6168664;29;20350;-75
2021/03/05 14:22:47;;;;;;;3.20;1.00;;;;;;;1.71;39.99;102328.59;6166551;28;20207;-75
2021/03/05 14:26:05;;;;;;;1.00;0.90;;;;;;;1.55;40.60;102338.88;6168130;29;20194;-73
2021/03/05 14:29:23;;;;;;;1.30;1.00;;;;;;;1.58;39.38;102349.38;6167476;29;20243;-73
2021/03/05 14:32:46;;;;;;;0.87;0.87;;;;;;;1.37;38.48;102351.09;6168173;29;20195;-74
2021/03/05 14:36:05;;;;;;;2.63;1.00;;;;;;;1.46;38.02;102339.63;6167919;29;20191;-75
2021/03/05 14:39:27;;;;;;;4.80;1.00;;;;;;;1.34;37.20;102340.56;6167789;28;20198;-75
2021/03/05 14:42:48;;;;;;;1.03;1.00;;;;;;;1.50;37.53;102351.81;6168156;29;20221;-74
2021/03/05 14:46:05;;;;;;;1.00;1.00;;;;;;;1.48;38.08;102353.78;6168239;29;20194;-74
2021/03/05 14:49:25;;;;;;;1.13;1.13;;;;;;;1.39;37.84;102357.22;6166957;29;20198;-74